createdAt,value
2022-08-20T00:01:10.719Z,23.03
2022-08-20T00:03:41.041Z,22.88
2022-08-20T00:06:19.174Z,23.00
2022-08-20T00:08:46.890Z,23.09
2022-08-20T00:11:19.665Z,23.13
2022-08-20T00:13:53.549Z,23.20
2022-08-20T00:16:23.316Z,23.32
2022-08-20T00:18:50.883Z,23.58
2022-08-20T00:21:20.250Z,23.86
2022-08-20T00:23:50.038Z,23.55
2022-08-20T00:26:18.396Z,23.22
2022-08-20T00:28:46.126Z,23.22
2022-08-20T00:31:18.353Z,23.30
2022-08-20T00:33:45.978Z,23.30
2022-08-20T00:36:12.948Z,23.49
2022-08-20T00:38:43.098Z,23.44
2022-08-20T00:41:13.995Z,23.41
2022-08-20T00:43:44.718Z,23.25
2022-08-20T00:46:17.393Z,23.11
2022-08-20T00:48:50.456Z,22.87
2022-08-20T00:51:29.943Z,22.98
2022-08-20T00:54:09.863Z,23.06
2022-08-20T00:56:37.819Z,22.91
2022-08-20T00:59:11.802Z,22.53
2022-08-20T01:01:56.170Z,22.48
2022-08-20T01:04:33.773Z,22.44
2022-08-20T01:07:01.821Z,22.77
2022-08-20T01:09:33.482Z,22.80
2022-08-20T01:12:17.313Z,22.93
2022-08-20T01:14:46.807Z,23.04
2022-08-20T01:17:19.427Z,23.11
2022-08-20T01:19:54.453Z,23.16
2022-08-20T01:22:59.592Z,23.06
2022-08-20T01:25:39.356Z,23.30
2022-08-20T01:28:06.581Z,23.18
2022-08-20T01:30:34.730Z,23.07
2022-08-20T01:33:02.691Z,22.97
2022-08-20T01:35:29.979Z,22.43
2022-08-20T01:37:57.171Z,22.39
2022-08-20T01:40:39.848Z,22.55
2022-08-20T01:43:09.734Z,22.73
2022-08-20T01:45:37.127Z,22.70
2022-08-20T01:48:08.566Z,22.89
2022-08-20T01:50:42.214Z,22.85
2022-08-20T01:53:19.126Z,22.82
2022-08-20T01:55:46.197Z,22.62
2022-08-20T01:58:14.022Z,22.64
2022-08-20T02:00:41.074Z,22.68
2022-08-20T02:03:08.814Z,23.17
2022-08-20T02:05:36.232Z,22.75
2022-08-20T02:08:04.202Z,22.99
2022-08-20T02:10:31.892Z,23.15
2022-08-20T02:13:02.561Z,23.20
2022-08-20T02:15:34.485Z,23.08
2022-08-20T02:18:12.494Z,23.16
2022-08-20T02:20:40.611Z,22.61
2022-08-20T02:23:08.558Z,22.23
2022-08-20T02:25:37.504Z,21.70
2022-08-20T02:28:07.723Z,21.60
2022-08-20T02:30:39.326Z,21.84
2022-08-20T02:33:09.740Z,22.01
2022-08-20T02:35:37.666Z,22.44
2022-08-20T02:38:04.981Z,22.66
2022-08-20T02:40:33.135Z,22.71
2022-08-20T02:43:01.740Z,22.82
2022-08-20T02:45:30.404Z,22.89
2022-08-20T02:47:59.164Z,22.51
2022-08-20T02:50:27.157Z,22.43
2022-08-20T02:52:54.592Z,22.70
2022-08-20T02:55:27.399Z,22.65
2022-08-20T02:58:01.319Z,22.71
2022-08-20T03:00:38.543Z,22.98
2022-08-20T03:03:10.654Z,23.13
2022-08-20T03:05:40.218Z,23.04
2022-08-20T03:08:09.414Z,22.88
2022-08-20T03:10:37.970Z,22.50
2022-08-20T03:13:06.920Z,22.20
2022-08-20T03:15:34.568Z,22.48
2022-08-20T03:18:01.619Z,22.24
2022-08-20T03:20:29.182Z,22.20
2022-08-20T03:22:56.379Z,22.29
2022-08-20T03:25:24.303Z,22.36
2022-08-20T03:27:54.857Z,22.13
2022-08-20T03:30:23.028Z,22.23
2022-08-20T03:32:50.343Z,22.24
2022-08-20T03:35:20.228Z,22.34
2022-08-20T03:37:48.163Z,22.41
2022-08-20T03:40:23.194Z,22.70
2022-08-20T03:42:52.439Z,22.83
2022-08-20T03:45:20.908Z,22.74
2022-08-20T03:47:49.051Z,22.89
2022-08-20T03:50:23.113Z,23.03
2022-08-20T03:52:54.707Z,22.88
2022-08-20T03:55:23.819Z,23.13
2022-08-20T03:57:54.407Z,23.30
2022-08-20T04:00:27.091Z,23.48
2022-08-20T04:02:54.125Z,23.46
2022-08-20T04:05:28.432Z,23.45
2022-08-20T04:07:57.186Z,23.15
2022-08-20T04:10:30.284Z,22.89
2022-08-20T04:12:57.341Z,22.82
2022-08-20T04:15:24.608Z,23.17
2022-08-20T04:17:52.833Z,23.50
2022-08-20T04:20:24.027Z,23.44
2022-08-20T04:22:58.973Z,23.42
2022-08-20T04:25:29.765Z,23.66
2022-08-20T04:27:58.708Z,23.64
2022-08-20T04:30:26.692Z,23.32
2022-08-20T04:32:54.477Z,23.33
2022-08-20T04:35:24.608Z,23.25
2022-08-20T04:38:02.814Z,23.35
2022-08-20T04:40:48.774Z,23.42
2022-08-20T04:43:16.005Z,23.61
2022-08-20T04:45:43.982Z,23.94
2022-08-20T04:48:15.011Z,23.87
2022-08-20T04:50:45.163Z,24.32
2022-08-20T04:53:14.125Z,24.15
2022-08-20T04:55:43.106Z,24.61
2022-08-20T04:58:27.388Z,25.06
2022-08-20T05:00:57.186Z,24.91
2022-08-20T05:03:29.001Z,25.18
2022-08-20T05:05:57.075Z,25.22
2022-08-20T05:08:25.783Z,25.80
2022-08-20T05:11:06.887Z,26.22
2022-08-20T05:13:44.256Z,26.57
2022-08-20T05:16:11.221Z,26.59
2022-08-20T05:18:38.155Z,26.58
2022-08-20T05:21:08.036Z,26.68
2022-08-20T05:23:37.391Z,26.89
2022-08-20T05:26:09.318Z,27.23
2022-08-20T05:28:51.340Z,27.30
2022-08-20T05:31:31.321Z,26.95
2022-08-20T05:34:10.321Z,27.51
2022-08-20T05:36:49.296Z,27.86
2022-08-20T05:39:21.160Z,27.83
2022-08-20T05:41:50.906Z,27.87
2022-08-20T05:44:18.737Z,28.01
2022-08-20T05:46:46.976Z,28.41
2022-08-20T05:49:22.423Z,28.62
2022-08-20T05:51:51.559Z,28.59
2022-08-20T05:54:18.579Z,29.08
2022-08-20T05:56:45.492Z,29.19
2022-08-20T05:59:14.153Z,29.30
2022-08-20T06:01:42.180Z,29.94
2022-08-20T06:04:26.990Z,30.30
2022-08-20T06:06:55.336Z,30.52
2022-08-20T06:09:31.481Z,31.06
2022-08-20T06:12:06.181Z,30.61
2022-08-20T06:14:33.684Z,30.93
2022-08-20T06:17:06.191Z,31.13
2022-08-20T06:19:35.630Z,31.19
2022-08-20T06:22:17.634Z,31.30
2022-08-20T06:24:47.383Z,31.38
2022-08-20T06:27:16.472Z,31.83
2022-08-20T06:29:43.949Z,32.12
2022-08-20T06:32:11.326Z,31.61
2022-08-20T06:34:38.282Z,31.96
2022-08-20T06:37:21.831Z,32.29
2022-08-20T06:39:49.325Z,32.75
2022-08-20T06:42:20.844Z,32.79
2022-08-20T06:44:50.967Z,32.75
2022-08-20T06:47:20.297Z,32.63
2022-08-20T06:49:48.747Z,33.48
2022-08-20T06:52:17.311Z,32.80
2022-08-20T06:54:45.697Z,33.60
2022-08-20T06:57:13.007Z,33.36
2022-08-20T06:59:40.155Z,33.03
2022-08-20T07:02:07.063Z,33.63
2022-08-20T07:04:34.103Z,32.26
2022-08-20T07:07:01.234Z,32.73
2022-08-20T07:09:28.430Z,33.30
2022-08-20T07:11:56.737Z,33.16
2022-08-20T07:14:23.724Z,33.35
2022-08-20T07:16:50.722Z,32.66
2022-08-20T07:19:17.892Z,32.75
2022-08-20T07:21:44.828Z,32.47
2022-08-20T07:24:12.919Z,32.84
2022-08-20T07:26:40.373Z,31.66
2022-08-20T07:29:07.637Z,31.77
2022-08-20T07:31:53.293Z,31.77
2022-08-20T07:34:20.313Z,31.53
2022-08-20T07:36:48.950Z,32.17
2022-08-20T07:39:15.945Z,32.28
2022-08-20T07:41:47.484Z,31.94
2022-08-20T07:44:31.052Z,31.76
2022-08-20T07:47:01.457Z,32.34
2022-08-20T07:49:30.122Z,32.47
2022-08-20T07:51:57.254Z,32.70
2022-08-20T07:54:24.410Z,32.53
2022-08-20T07:56:51.395Z,32.13
2022-08-20T07:59:18.426Z,31.91
2022-08-20T08:01:45.418Z,32.60
2022-08-20T08:04:12.435Z,32.67
2022-08-20T08:06:40.712Z,33.40
2022-08-20T08:09:11.793Z,33.10
2022-08-20T08:11:46.479Z,33.65
2022-08-20T08:14:15.833Z,33.64
2022-08-20T08:16:45.839Z,33.85
2022-08-20T08:19:16.490Z,33.83
2022-08-20T08:21:44.498Z,33.72
2022-08-20T08:24:14.358Z,33.52
2022-08-20T08:26:44.312Z,33.44
2022-08-20T08:29:12.218Z,33.16
2022-08-20T08:31:41.091Z,33.40
2022-08-20T08:34:08.698Z,33.60
2022-08-20T08:36:35.747Z,33.87
2022-08-20T08:39:02.754Z,33.29
2022-08-20T08:41:35.873Z,33.11
2022-08-20T08:44:11.097Z,33.11
2022-08-20T08:46:45.335Z,33.01
2022-08-20T08:49:16.467Z,33.16
2022-08-20T08:51:49.281Z,33.27
2022-08-20T08:54:22.161Z,33.54
2022-08-20T08:56:50.525Z,33.92
2022-08-20T08:59:19.411Z,33.21
2022-08-20T09:01:59.507Z,33.42
2022-08-20T09:04:34.448Z,33.39
2022-08-20T09:07:04.549Z,32.93
2022-08-20T09:09:38.009Z,33.59
2022-08-20T09:12:15.510Z,33.43
2022-08-20T09:14:42.427Z,32.49
2022-08-20T09:17:09.438Z,32.58
2022-08-20T09:19:36.449Z,32.48
2022-08-20T09:22:11.965Z,32.56
2022-08-20T09:24:39.777Z,32.41
2022-08-20T09:27:07.083Z,32.52
2022-08-20T09:29:34.426Z,31.79
2022-08-20T09:32:17.515Z,32.11
2022-08-20T09:34:52.616Z,32.57
2022-08-20T09:37:20.177Z,32.46
2022-08-20T09:39:48.188Z,32.22
2022-08-20T09:42:24.359Z,31.77
2022-08-20T09:44:51.436Z,31.57
2022-08-20T09:47:18.712Z,31.22
2022-08-20T09:49:46.265Z,31.58
2022-08-20T09:52:32.236Z,31.97
2022-08-20T09:55:06.988Z,32.33
2022-08-20T09:57:35.441Z,32.66
2022-08-20T10:00:16.599Z,32.61
2022-08-20T10:02:43.915Z,32.55
2022-08-20T10:05:12.297Z,33.44
2022-08-20T10:07:40.830Z,31.80
2022-08-20T10:10:10.396Z,31.77
2022-08-20T10:12:37.551Z,31.69
2022-08-20T10:15:05.307Z,32.08
2022-08-20T10:17:32.192Z,31.63
2022-08-20T10:19:59.158Z,32.85
2022-08-20T10:22:27.460Z,33.35
2022-08-20T10:24:54.499Z,33.59
2022-08-20T10:27:21.445Z,32.44
2022-08-20T10:29:48.458Z,33.32
2022-08-20T10:32:17.355Z,33.38
2022-08-20T10:34:46.443Z,33.72
2022-08-20T10:37:19.619Z,34.05
2022-08-20T10:39:46.985Z,33.90
2022-08-20T10:42:14.142Z,33.44
2022-08-20T10:44:41.122Z,33.39
2022-08-20T10:47:31.578Z,33.07
2022-08-20T10:50:01.152Z,33.26
2022-08-20T10:52:28.582Z,33.17
2022-08-20T10:54:55.693Z,33.82
2022-08-20T10:57:26.273Z,32.58
2022-08-20T10:59:56.233Z,32.98
2022-08-20T11:02:24.170Z,33.41
2022-08-20T11:04:51.795Z,33.23
2022-08-20T11:07:50.031Z,32.74
2022-08-20T11:10:14.001Z,32.76
2022-08-20T11:12:42.023Z,32.79
2022-08-20T11:15:12.551Z,33.50
2022-08-20T11:17:41.876Z,34.10
2022-08-20T11:20:11.799Z,33.34
2022-08-20T11:22:38.842Z,33.23
2022-08-20T11:25:07.255Z,33.51
2022-08-20T11:27:37.063Z,34.24
2022-08-20T11:30:06.674Z,32.56
2022-08-20T11:32:33.635Z,32.76
2022-08-20T11:35:00.544Z,33.39
2022-08-20T11:37:27.913Z,32.86
2022-08-20T11:39:54.947Z,33.31
2022-08-20T11:42:22.033Z,33.97
2022-08-20T11:44:48.963Z,32.71
2022-08-20T11:47:27.440Z,32.46
2022-08-20T11:50:04.025Z,32.29
2022-08-20T11:52:31.334Z,32.66
2022-08-20T11:54:59.417Z,32.83
2022-08-20T11:57:31.928Z,32.13
2022-08-20T12:00:00.727Z,32.64
2022-08-20T12:02:28.512Z,32.34
2022-08-20T12:04:56.869Z,32.73
2022-08-20T12:07:25.975Z,31.83
2022-08-20T12:09:53.303Z,31.45
2022-08-20T12:12:23.562Z,31.68
2022-08-20T12:14:55.409Z,32.90
2022-08-20T12:17:26.899Z,32.09
2022-08-20T12:19:55.669Z,32.74
2022-08-20T12:22:25.234Z,32.30
2022-08-20T12:24:54.218Z,33.22
2022-08-20T12:27:24.895Z,32.53
2022-08-20T12:29:54.245Z,32.50
2022-08-20T12:32:22.369Z,32.04
2022-08-20T12:34:49.829Z,33.23
2022-08-20T12:37:20.192Z,33.46
2022-08-20T12:39:50.227Z,33.14
2022-08-20T12:42:17.625Z,33.85
2022-08-20T12:44:44.873Z,32.59
2022-08-20T12:47:28.192Z,33.11
2022-08-20T12:49:58.106Z,33.33
2022-08-20T12:52:25.852Z,31.85
2022-08-20T12:54:53.907Z,31.38
2022-08-20T12:57:30.974Z,31.39
2022-08-20T13:00:11.645Z,31.27
2022-08-20T13:02:41.262Z,31.01
2022-08-20T13:05:10.469Z,31.04
2022-08-20T13:07:38.858Z,31.22
2022-08-20T13:10:07.828Z,30.29
2022-08-20T13:12:35.046Z,30.58
2022-08-20T13:15:02.209Z,30.57
2022-08-20T13:17:38.839Z,30.45
2022-08-20T13:20:14.100Z,29.91
2022-08-20T13:22:41.643Z,30.34
2022-08-20T13:25:09.957Z,30.25
2022-08-20T13:27:38.544Z,30.41
2022-08-20T13:30:08.368Z,30.54
2022-08-20T13:32:35.429Z,31.22
2022-08-20T13:35:02.580Z,30.62
2022-08-20T13:37:30.790Z,30.22
2022-08-20T13:39:59.691Z,30.11
2022-08-20T13:42:27.837Z,29.47
2022-08-20T13:44:55.058Z,30.13
2022-08-20T13:47:34.366Z,30.37
2022-08-20T13:50:09.883Z,30.50
2022-08-20T13:52:37.731Z,31.03
2022-08-20T13:55:07.099Z,30.39
2022-08-20T13:57:34.944Z,29.79
2022-08-20T14:00:03.265Z,29.52
2022-08-20T14:02:31.186Z,29.34
2022-08-20T14:04:58.225Z,29.25
2022-08-20T14:07:32.220Z,29.46
2022-08-20T14:10:13.558Z,29.70
2022-08-20T14:12:41.404Z,29.50
2022-08-20T14:15:09.298Z,29.90
2022-08-20T14:17:41.559Z,29.70
2022-08-20T14:20:13.018Z,28.77
2022-08-20T14:22:41.864Z,28.93
2022-08-20T14:25:11.245Z,28.68
2022-08-20T14:27:39.121Z,29.08
2022-08-20T14:30:11.823Z,28.87
2022-08-20T14:32:39.003Z,28.88
2022-08-20T14:35:06.631Z,29.26
2022-08-20T14:37:38.212Z,29.24
2022-08-20T14:40:09.215Z,28.83
2022-08-20T14:42:36.815Z,28.75
2022-08-20T14:45:06.578Z,28.68
2022-08-20T14:47:42.350Z,28.57
2022-08-20T14:50:23.517Z,28.75
2022-08-20T14:52:50.554Z,28.52
2022-08-20T14:55:20.992Z,28.81
2022-08-20T14:57:48.825Z,28.27
2022-08-20T15:00:19.645Z,28.03
2022-08-20T15:02:47.230Z,27.88
2022-08-20T15:05:15.775Z,27.98
2022-08-20T15:07:48.317Z,28.31
2022-08-20T15:10:30.669Z,28.07
2022-08-20T15:12:59.028Z,27.81
2022-08-20T15:15:26.523Z,27.76
2022-08-20T15:17:57.022Z,27.74
2022-08-20T15:20:27.690Z,27.90
2022-08-20T15:22:55.312Z,27.78
2022-08-20T15:25:25.199Z,27.91
2022-08-20T15:27:58.366Z,27.77
2022-08-20T15:30:30.959Z,27.68
2022-08-20T15:32:58.266Z,27.62
2022-08-20T15:35:27.236Z,27.89
2022-08-20T15:37:57.892Z,27.74
2022-08-20T15:40:28.895Z,27.25
2022-08-20T15:43:00.593Z,27.11
2022-08-20T15:45:28.224Z,26.92
2022-08-20T15:48:17.239Z,26.98
2022-08-20T15:51:28.965Z,26.83
2022-08-20T15:54:01.046Z,26.95
2022-08-20T15:56:52.869Z,26.72
2022-08-20T15:59:35.846Z,26.70
2022-08-20T16:02:37.200Z,26.73
2022-08-20T16:05:06.809Z,26.80
2022-08-20T16:07:33.943Z,26.64
2022-08-20T16:10:27.081Z,26.54
2022-08-20T16:12:58.424Z,26.67
2022-08-20T16:15:30.376Z,26.61
2022-08-20T16:18:00.088Z,26.70
2022-08-20T16:20:35.593Z,27.02
2022-08-20T16:23:04.438Z,26.65
2022-08-20T16:25:58.908Z,26.58
2022-08-20T16:28:28.979Z,26.71
2022-08-20T16:31:06.599Z,26.65
2022-08-20T16:33:38.828Z,26.53
2022-08-20T16:36:15.526Z,26.16
2022-08-20T16:39:05.110Z,26.37
2022-08-20T16:41:38.454Z,26.12
2022-08-20T16:44:15.311Z,25.94
2022-08-20T16:46:55.118Z,25.89
2022-08-20T16:49:25.835Z,25.98
2022-08-20T16:51:53.760Z,25.92
2022-08-20T16:54:30.071Z,25.77
2022-08-20T16:57:04.182Z,25.77
2022-08-20T16:59:32.150Z,25.65
2022-08-20T17:02:10.528Z,25.82
2022-08-20T17:04:58.887Z,25.70
2022-08-20T17:07:43.542Z,25.78
2022-08-20T17:10:21.360Z,26.04
2022-08-20T17:13:03.095Z,26.05
2022-08-20T17:15:33.871Z,25.63
2022-08-20T17:18:30.925Z,25.92
2022-08-20T17:21:41.482Z,26.23
2022-08-20T17:24:25.458Z,26.17
2022-08-20T17:26:59.858Z,26.04
2022-08-20T17:29:30.797Z,26.24
2022-08-20T17:32:25.899Z,26.03
2022-08-20T17:34:55.934Z,26.02
2022-08-20T17:37:33.468Z,26.09
2022-08-20T17:40:28.730Z,25.99
2022-08-20T17:43:03.809Z,26.31
2022-08-20T17:45:45.806Z,26.62
2022-08-20T17:48:17.143Z,26.40
2022-08-20T17:50:44.554Z,26.24
2022-08-20T17:53:22.565Z,26.16
2022-08-20T17:56:13.212Z,25.96
2022-08-20T17:58:55.943Z,26.22
2022-08-20T18:01:26.006Z,26.41
2022-08-20T18:03:53.762Z,26.27
2022-08-20T18:06:35.142Z,26.45
2022-08-20T18:09:09.458Z,26.59
2022-08-20T18:12:03.354Z,26.78
2022-08-20T18:14:38.946Z,26.88
2022-08-20T18:17:34.788Z,26.97
2022-08-20T18:20:38.966Z,27.09
2022-08-20T18:23:10.485Z,26.74
2022-08-20T18:25:53.926Z,26.79
2022-08-20T18:28:27.845Z,26.88
2022-08-20T18:31:00.704Z,26.73
2022-08-20T18:33:29.969Z,26.81
2022-08-20T18:36:14.427Z,27.01
2022-08-20T18:38:42.696Z,27.42
2022-08-20T18:41:26.328Z,27.60
2022-08-20T18:44:10.156Z,27.52
2022-08-20T18:46:53.665Z,27.22
2022-08-20T18:49:27.844Z,26.98
2022-08-20T18:51:55.050Z,26.96
2022-08-20T18:54:30.605Z,26.73
2022-08-20T18:57:25.038Z,26.77
2022-08-20T19:00:49.777Z,26.69
2022-08-20T19:03:45.593Z,26.73
2022-08-20T19:06:54.307Z,26.67
2022-08-20T19:09:43.441Z,26.87
2022-08-20T19:12:28.776Z,27.03
2022-08-20T19:15:04.151Z,26.99
2022-08-20T19:17:44.045Z,26.94
2022-08-20T19:20:16.441Z,26.64
2022-08-20T19:22:45.531Z,26.65
2022-08-20T19:25:35.434Z,26.74
2022-08-20T19:28:35.309Z,26.66
2022-08-20T19:31:25.832Z,26.28
2022-08-20T19:34:19.968Z,25.91
2022-08-20T19:37:35.058Z,25.86
2022-08-20T19:40:08.677Z,26.38
2022-08-20T19:42:43.257Z,26.38
2022-08-20T19:45:24.091Z,26.41
2022-08-20T19:48:09.638Z,26.52
2022-08-20T19:50:51.154Z,26.47
2022-08-20T19:53:33.451Z,26.40
2022-08-20T19:56:14.766Z,26.51
2022-08-20T19:58:44.474Z,26.53
2022-08-20T20:01:20.426Z,26.61
2022-08-20T20:04:00.302Z,26.45
2022-08-20T20:06:28.756Z,26.34
2022-08-20T20:09:06.290Z,26.39
2022-08-20T20:11:42.249Z,26.14
2022-08-20T20:14:13.316Z,26.11
2022-08-20T20:16:41.563Z,26.03
2022-08-20T20:19:26.351Z,25.89
2022-08-20T20:22:29.138Z,25.76
2022-08-20T20:25:06.164Z,25.56
2022-08-20T20:27:36.615Z,25.92
2022-08-20T20:30:11.808Z,26.03
2022-08-20T20:32:44.159Z,26.17
2022-08-20T20:35:11.356Z,25.96
2022-08-20T20:37:50.479Z,25.82
2022-08-20T20:40:24.329Z,25.65
2022-08-20T20:43:08.285Z,25.63
2022-08-20T20:45:41.844Z,25.72
2022-08-20T20:48:33.852Z,25.57
2022-08-20T20:51:11.931Z,25.42
2022-08-20T20:53:53.033Z,25.36
2022-08-20T20:56:35.296Z,25.37
2022-08-20T20:59:06.885Z,25.46
2022-08-20T21:01:46.220Z,25.53
2022-08-20T21:04:18.294Z,25.66
2022-08-20T21:06:45.359Z,25.76
2022-08-20T21:09:12.397Z,25.84
2022-08-20T21:11:39.289Z,26.03
2022-08-20T21:14:06.198Z,26.09
2022-08-20T21:16:33.194Z,26.06
2022-08-20T21:19:00.550Z,25.96
2022-08-20T21:21:27.523Z,25.77
2022-08-20T21:23:54.539Z,25.95
2022-08-20T21:26:21.508Z,25.95
2022-08-20T21:28:48.442Z,25.89
2022-08-20T21:31:15.349Z,25.81
2022-08-20T21:33:42.279Z,25.87
2022-08-20T21:36:09.554Z,26.13
2022-08-20T21:38:37.264Z,26.26
2022-08-20T21:41:04.363Z,26.29
2022-08-20T21:43:32.827Z,26.22
2022-08-20T21:46:02.360Z,26.21
2022-08-20T21:48:30.195Z,26.11
2022-08-20T21:50:57.117Z,25.95
2022-08-20T21:53:24.053Z,25.76
2022-08-20T21:55:51.232Z,25.82
2022-08-20T21:58:19.952Z,25.88
2022-08-20T22:01:02.797Z,25.76
2022-08-20T22:03:36.877Z,25.67
2022-08-20T22:06:07.969Z,25.97
2022-08-20T22:08:35.336Z,25.99
2022-08-20T22:11:02.955Z,25.76
2022-08-20T22:13:32.964Z,25.63
2022-08-20T22:16:01.499Z,25.51
2022-08-20T22:18:28.578Z,24.99
2022-08-20T22:20:56.032Z,24.56
2022-08-20T22:23:23.425Z,24.37
2022-08-20T22:25:50.717Z,24.67
2022-08-20T22:28:18.577Z,24.58
2022-08-20T22:30:46.006Z,24.52
2022-08-20T22:33:17.383Z,24.06
2022-08-20T22:35:50.813Z,24.15
2022-08-20T22:38:18.393Z,24.37
2022-08-20T22:40:45.821Z,24.69
2022-08-20T22:43:14.092Z,24.71
2022-08-20T22:45:43.804Z,24.71
2022-08-20T22:48:13.932Z,24.63
2022-08-20T22:50:41.042Z,24.31
2022-08-20T22:53:08.750Z,24.36
2022-08-20T22:55:37.092Z,24.34
2022-08-20T22:58:05.187Z,24.33
2022-08-20T23:00:32.975Z,24.28
2022-08-20T23:03:01.416Z,24.48
2022-08-20T23:05:30.801Z,24.52
2022-08-20T23:07:59.479Z,24.53
2022-08-20T23:10:28.051Z,24.56
2022-08-20T23:12:55.364Z,24.61
2022-08-20T23:15:22.427Z,24.58
2022-08-20T23:17:50.177Z,24.76
2022-08-20T23:20:18.746Z,24.57
2022-08-20T23:22:45.889Z,24.90
2022-08-20T23:25:14.199Z,24.95
2022-08-20T23:27:44.989Z,24.81
2022-08-20T23:30:12.585Z,24.53
2022-08-20T23:32:39.800Z,23.89
2022-08-20T23:35:07.375Z,23.25
2022-08-20T23:37:47.827Z,23.14
2022-08-20T23:40:16.701Z,23.31
2022-08-20T23:42:44.263Z,23.69
2022-08-20T23:45:11.722Z,23.56
2022-08-20T23:47:38.882Z,23.31
2022-08-20T23:50:07.985Z,23.04
2022-08-20T23:52:34.980Z,23.13
2022-08-20T23:55:01.989Z,23.41
2022-08-20T23:57:28.989Z,23.50
2022-08-20T23:59:56.007Z,23.77
